createdAt,value
2022-12-19T00:00:29.526Z,76.47
2022-12-19T00:02:59.041Z,88.43
2022-12-19T00:05:27.142Z,89.90
2022-12-19T00:07:55.136Z,92.77
2022-12-19T00:10:23.453Z,94.23
2022-12-19T00:12:51.426Z,81.93
2022-12-19T00:15:19.453Z,84.27
2022-12-19T00:17:47.454Z,87.63
2022-12-19T00:20:18.576Z,86.73
2022-12-19T00:22:46.814Z,85.63
2022-12-19T00:25:14.899Z,87.47
2022-12-19T00:27:44.082Z,80.57
2022-12-19T00:30:13.377Z,86.77
2022-12-19T00:32:42.425Z,86.13
2022-12-19T00:35:10.821Z,92.07
2022-12-19T00:37:41.463Z,92.20
2022-12-19T00:40:17.768Z,89.13
2022-12-19T00:42:51.702Z,95.43
2022-12-19T00:45:21.593Z,91.93
2022-12-19T00:47:49.595Z,84.63
2022-12-19T00:50:17.725Z,89.63
2022-12-19T00:52:47.133Z,86.87
2022-12-19T00:55:19.288Z,81.90
2022-12-19T00:57:48.218Z,81.90
2022-12-19T01:00:18.318Z,84.27
2022-12-19T01:02:46.919Z,82.23
2022-12-19T01:05:15.166Z,83.20
2022-12-19T01:07:43.251Z,82.80
2022-12-19T01:10:12.778Z,80.43
2022-12-19T01:12:48.398Z,84.17
2022-12-19T01:15:20.543Z,83.47
2022-12-19T01:17:49.000Z,79.23
2022-12-19T01:20:28.893Z,85.00
2022-12-19T01:23:00.128Z,86.13
2022-12-19T01:25:30.229Z,83.20
2022-12-19T01:27:58.869Z,82.97
2022-12-19T01:30:27.654Z,86.63
2022-12-19T01:32:57.967Z,83.17
2022-12-19T01:35:28.950Z,81.07
2022-12-19T01:38:07.661Z,83.10
2022-12-19T01:40:39.240Z,83.43
2022-12-19T01:43:13.826Z,83.63
2022-12-19T01:45:45.870Z,82.10
2022-12-19T01:48:18.124Z,83.43
2022-12-19T01:51:02.084Z,82.60
2022-12-19T01:53:35.752Z,85.33
2022-12-19T01:56:09.936Z,81.07
2022-12-19T01:58:40.986Z,83.67
2022-12-19T02:01:09.308Z,81.83
2022-12-19T02:03:39.058Z,84.30
2022-12-19T02:06:13.442Z,77.27
2022-12-19T02:08:43.322Z,83.97
2022-12-19T02:11:12.867Z,79.87
2022-12-19T02:13:41.733Z,77.07
2022-12-19T02:16:23.443Z,81.80
2022-12-19T02:19:03.992Z,77.90
2022-12-19T02:21:55.115Z,75.77
2022-12-19T02:24:53.672Z,72.27
2022-12-19T02:27:59.265Z,80.30
2022-12-19T02:30:43.485Z,78.77
2022-12-19T02:33:17.430Z,77.53
2022-12-19T02:35:53.503Z,78.07
2022-12-19T02:38:30.313Z,76.30
2022-12-19T02:41:02.648Z,74.70
2022-12-19T02:43:36.638Z,76.23
2022-12-19T02:46:08.567Z,73.93
2022-12-19T02:48:38.379Z,72.07
2022-12-19T02:51:07.161Z,81.77
2022-12-19T02:53:38.489Z,73.03
2022-12-19T02:56:34.789Z,83.13
2022-12-19T02:59:24.782Z,74.73
2022-12-19T03:01:58.970Z,75.73
2022-12-19T03:04:40.847Z,70.83
2022-12-19T03:07:21.358Z,73.53
2022-12-19T03:09:59.950Z,72.30
2022-12-19T03:12:34.246Z,70.53
2022-12-19T03:15:03.696Z,71.90
2022-12-19T03:17:37.405Z,71.30
2022-12-19T03:20:11.437Z,70.13
2022-12-19T03:22:39.753Z,69.00
2022-12-19T03:25:08.699Z,72.33
2022-12-19T03:27:40.593Z,73.47
2022-12-19T03:30:12.556Z,77.30
2022-12-19T03:32:45.247Z,72.87
2022-12-19T03:35:16.905Z,70.87
2022-12-19T03:37:47.427Z,71.90
2022-12-19T03:40:19.000Z,71.47
2022-12-19T03:43:07.572Z,71.33
2022-12-19T03:45:46.424Z,66.93
2022-12-19T03:48:20.844Z,72.37
2022-12-19T03:51:00.009Z,75.23
2022-12-19T03:53:38.122Z,68.97
2022-12-19T03:56:14.389Z,72.87
2022-12-19T03:58:46.754Z,71.40
2022-12-19T04:01:15.672Z,70.80
2022-12-19T04:03:45.592Z,70.47
2022-12-19T04:06:15.658Z,74.07
2022-12-19T04:08:44.298Z,72.43
2022-12-19T04:11:20.883Z,74.63
2022-12-19T04:13:53.457Z,68.23
2022-12-19T04:16:25.047Z,67.03
2022-12-19T04:19:00.155Z,67.30
2022-12-19T04:21:33.757Z,65.27
2022-12-19T04:24:07.765Z,65.90
2022-12-19T04:26:38.166Z,67.00
2022-12-19T04:29:09.118Z,69.10
2022-12-19T04:31:38.065Z,67.87
2022-12-19T04:34:07.524Z,70.13
2022-12-19T04:36:36.058Z,70.10
2022-12-19T04:39:04.777Z,67.93
2022-12-19T04:41:34.517Z,66.30
2022-12-19T04:44:02.836Z,71.90
2022-12-19T04:46:30.945Z,69.77
2022-12-19T04:48:58.989Z,69.27
2022-12-19T04:51:28.563Z,71.30
2022-12-19T04:53:57.391Z,72.50
2022-12-19T04:56:25.479Z,70.53
2022-12-19T04:58:57.902Z,78.67
2022-12-19T05:01:26.343Z,76.17
2022-12-19T05:03:57.564Z,73.30
2022-12-19T05:06:29.552Z,75.33
2022-12-19T05:08:57.567Z,74.27
2022-12-19T05:11:25.631Z,73.60
2022-12-19T05:13:53.684Z,71.27
2022-12-19T05:16:21.744Z,72.73
2022-12-19T05:18:49.920Z,72.60
2022-12-19T05:21:17.898Z,71.90
2022-12-19T05:23:47.358Z,69.53
2022-12-19T05:26:15.409Z,69.67
2022-12-19T05:28:43.436Z,69.47
2022-12-19T05:31:13.390Z,67.77
2022-12-19T05:33:42.658Z,71.27
2022-12-19T05:36:12.072Z,68.20
2022-12-19T05:38:40.328Z,69.33
2022-12-19T05:41:11.029Z,70.53
2022-12-19T05:43:39.160Z,70.70
2022-12-19T05:46:07.904Z,70.63
2022-12-19T05:48:36.750Z,67.03
2022-12-19T05:51:05.109Z,70.50
2022-12-19T05:53:33.175Z,70.10
2022-12-19T05:56:06.133Z,79.53
2022-12-19T05:58:39.629Z,68.67
2022-12-19T06:01:09.521Z,66.77
2022-12-19T06:03:38.258Z,61.77
2022-12-19T06:06:08.550Z,61.07
2022-12-19T06:08:37.094Z,61.03
2022-12-19T06:11:07.099Z,64.83
2022-12-19T06:13:37.243Z,64.63
2022-12-19T06:16:08.130Z,59.00
2022-12-19T06:18:40.433Z,64.87
2022-12-19T06:21:13.158Z,63.87
2022-12-19T06:23:41.271Z,62.00
2022-12-19T06:26:18.264Z,69.90
2022-12-19T06:28:49.459Z,69.67
2022-12-19T06:31:18.867Z,70.10
2022-12-19T06:33:46.924Z,66.83
2022-12-19T06:36:17.990Z,67.60
2022-12-19T06:38:46.076Z,73.40
2022-12-19T06:41:31.686Z,76.13
2022-12-19T06:44:01.983Z,71.87
2022-12-19T06:46:30.779Z,77.50
2022-12-19T06:48:58.996Z,78.23
2022-12-19T06:51:27.482Z,78.17
2022-12-19T06:53:55.669Z,70.70
2022-12-19T06:56:24.823Z,77.87
2022-12-19T06:58:52.994Z,80.97
2022-12-19T07:01:26.347Z,80.70
2022-12-19T07:03:55.931Z,74.90
2022-12-19T07:06:24.705Z,76.60
2022-12-19T07:08:54.127Z,85.47
2022-12-19T07:11:22.276Z,78.90
2022-12-19T07:13:50.288Z,79.23
2022-12-19T07:16:18.395Z,82.90
2022-12-19T07:18:47.954Z,80.00
2022-12-19T07:21:15.993Z,78.03
2022-12-19T07:23:44.993Z,74.17
2022-12-19T07:26:13.501Z,77.87
2022-12-19T07:28:44.508Z,86.80
2022-12-19T07:31:12.744Z,79.17
2022-12-19T07:33:44.899Z,84.07
2022-12-19T07:36:14.263Z,84.17
2022-12-19T07:38:42.300Z,80.80
2022-12-19T07:41:10.333Z,75.50
2022-12-19T07:43:38.312Z,76.77
2022-12-19T07:46:06.674Z,78.50
2022-12-19T07:48:34.667Z,79.13
2022-12-19T07:51:02.777Z,81.30
2022-12-19T07:53:32.689Z,78.97
2022-12-19T07:56:00.790Z,80.73
2022-12-19T07:58:28.841Z,81.03
2022-12-19T08:00:57.792Z,73.10
2022-12-19T08:03:26.437Z,78.20
2022-12-19T08:05:54.677Z,73.53
2022-12-19T08:08:22.648Z,75.83
2022-12-19T08:10:52.008Z,74.47
2022-12-19T08:13:20.022Z,79.83
2022-12-19T08:15:48.031Z,72.10
2022-12-19T08:18:16.095Z,76.97
2022-12-19T08:20:47.113Z,71.37
2022-12-19T08:23:15.125Z,76.67
2022-12-19T08:25:43.224Z,81.10
2022-12-19T08:28:12.619Z,78.53
2022-12-19T08:30:41.332Z,74.47
2022-12-19T08:33:09.631Z,75.60
2022-12-19T08:35:37.791Z,76.77
2022-12-19T08:38:06.669Z,79.10
2022-12-19T08:40:35.384Z,77.40
2022-12-19T08:43:03.353Z,73.80
2022-12-19T08:45:32.748Z,75.53
2022-12-19T08:48:00.732Z,79.27
2022-12-19T08:50:28.784Z,79.20
2022-12-19T08:52:56.939Z,79.43
2022-12-19T08:55:25.551Z,77.70
2022-12-19T08:57:55.888Z,86.23
2022-12-19T09:00:24.885Z,96.00
2022-12-19T09:02:55.317Z,87.97
2022-12-19T09:05:59.558Z,83.13
2022-12-19T09:08:11.787Z,87.27
2022-12-19T09:10:40.361Z,87.37
2022-12-19T09:13:09.572Z,82.27
2022-12-19T09:15:37.670Z,84.00
2022-12-19T09:18:08.048Z,85.93
2022-12-19T09:20:36.129Z,86.87
2022-12-19T09:23:04.244Z,80.37
2022-12-19T09:25:32.360Z,82.17
2022-12-19T09:30:57.113Z,88.40
2022-12-19T09:33:26.934Z,86.03
2022-12-19T09:35:56.649Z,87.33
2022-12-19T09:38:26.496Z,82.37
2022-12-19T09:41:07.510Z,86.47
2022-12-19T09:43:53.388Z,86.60
2022-12-19T09:46:33.364Z,89.53
2022-12-19T09:49:03.341Z,86.17
2022-12-19T09:51:38.398Z,87.63
2022-12-19T09:54:13.579Z,86.70
2022-12-19T09:56:46.240Z,90.53
2022-12-19T09:59:22.599Z,89.47
2022-12-19T10:01:59.152Z,82.33
2022-12-19T10:04:33.238Z,82.67
2022-12-19T10:07:20.590Z,86.87
2022-12-19T10:12:34.643Z,83.60
2022-12-19T10:12:58.404Z,82.43
2022-12-19T10:15:38.972Z,77.23
2022-12-19T10:18:29.528Z,72.77
2022-12-19T10:21:07.171Z,72.80
2022-12-19T10:24:07.774Z,75.83
2022-12-19T10:26:44.400Z,81.17
2022-12-19T10:29:46.683Z,76.77
2022-12-19T10:32:22.497Z,77.20
2022-12-19T10:34:52.182Z,74.53
2022-12-19T10:37:32.754Z,72.00
2022-12-19T10:40:16.155Z,71.57
2022-12-19T10:43:01.385Z,73.23
2022-12-19T10:45:47.050Z,67.27
2022-12-19T10:48:20.839Z,72.57
2022-12-19T10:50:52.940Z,73.37
2022-12-19T10:53:29.917Z,74.10
2022-12-19T10:56:02.854Z,72.27
2022-12-19T10:58:35.181Z,73.67
2022-12-19T11:01:15.642Z,71.27
2022-12-19T11:03:46.959Z,69.37
2022-12-19T11:06:43.030Z,72.37
2022-12-19T11:09:25.591Z,73.23
2022-12-19T11:16:09.568Z,69.10
2022-12-19T11:19:23.334Z,70.43
2022-12-19T11:27:29.572Z,75.17
2022-12-19T11:29:35.213Z,69.87
2022-12-19T11:29:38.650Z,69.80
2022-12-19T11:30:43.940Z,69.97
2022-12-19T11:30:44.122Z,71.13
2022-12-19T11:34:38.489Z,70.93
2022-12-19T11:37:17.990Z,66.83
2022-12-19T11:39:49.605Z,67.40
2022-12-19T11:42:26.041Z,70.80
2022-12-19T11:45:01.550Z,71.80
2022-12-19T11:47:36.960Z,68.83
2022-12-19T11:50:14.595Z,68.87
2022-12-19T11:53:11.486Z,65.20
2022-12-19T11:55:45.473Z,67.90
2022-12-19T11:58:15.376Z,62.77
2022-12-19T12:00:52.337Z,61.93
2022-12-19T12:04:03.237Z,65.90
2022-12-19T12:06:35.420Z,63.33
2022-12-19T12:12:44.220Z,65.27
2022-12-19T12:21:09.249Z,60.90
2022-12-19T12:29:05.419Z,58.17
2022-12-19T12:31:00.803Z,55.23
2022-12-19T12:31:25.893Z,60.30
2022-12-19T12:31:49.679Z,58.53
2022-12-19T12:31:51.729Z,62.90
2022-12-19T12:31:52.225Z,56.23
2022-12-19T12:35:51.511Z,57.60
2022-12-19T12:39:29.761Z,57.70
2022-12-19T12:42:12.649Z,58.00
2022-12-19T12:44:45.949Z,59.80
2022-12-19T12:47:20.603Z,60.17
2022-12-19T12:49:54.428Z,63.33
2022-12-19T12:52:31.205Z,57.47
2022-12-19T12:54:59.838Z,59.70
2022-12-19T12:57:37.748Z,63.97
2022-12-19T13:00:22.490Z,61.20
2022-12-19T13:02:57.052Z,66.73
2022-12-19T13:05:35.630Z,60.60
2022-12-19T13:08:23.938Z,67.00
2022-12-19T13:10:57.626Z,66.23
2022-12-19T13:13:54.008Z,70.83
2022-12-19T13:16:54.284Z,76.63
2022-12-19T13:19:28.727Z,66.37
2022-12-19T13:22:17.974Z,68.00
2022-12-19T13:24:47.443Z,71.67
2022-12-19T13:27:34.913Z,74.97
2022-12-19T13:30:21.423Z,71.73
2022-12-19T13:33:10.281Z,67.10
2022-12-19T13:39:17.496Z,73.37
2022-12-19T13:40:00.347Z,75.27
2022-12-19T13:42:02.708Z,71.70
2022-12-19T13:44:33.129Z,74.80
2022-12-19T13:47:01.203Z,74.57
2022-12-19T13:49:35.139Z,71.60
2022-12-19T13:52:06.277Z,72.37
2022-12-19T13:54:45.741Z,72.60
2022-12-19T13:57:22.437Z,73.87
2022-12-19T14:00:00.177Z,72.37
2022-12-19T14:02:34.876Z,78.60
2022-12-19T14:05:33.808Z,73.67
2022-12-19T14:08:19.208Z,71.83
2022-12-19T14:11:40.923Z,72.73
2022-12-19T14:14:10.158Z,73.70
2022-12-19T14:16:45.784Z,73.70
2022-12-19T14:19:24.456Z,72.40
2022-12-19T14:22:06.855Z,71.77
2022-12-19T14:24:42.615Z,73.83
2022-12-19T14:28:18.323Z,66.87
2022-12-19T14:30:29.765Z,81.43
2022-12-19T14:33:43.625Z,78.03
2022-12-19T14:36:06.443Z,73.33
2022-12-19T14:39:25.330Z,69.63
2022-12-19T14:42:01.477Z,76.57
2022-12-19T14:52:11.446Z,71.43
2022-12-19T14:53:52.475Z,73.90
2022-12-19T14:54:23.410Z,75.13
2022-12-19T14:54:28.277Z,76.30
2022-12-19T14:59:02.507Z,74.77
2022-12-19T15:01:34.153Z,76.30
2022-12-19T15:04:52.764Z,73.37
2022-12-19T15:07:10.036Z,76.77
2022-12-19T15:11:05.551Z,75.77
2022-12-19T15:14:48.564Z,80.17
2022-12-19T15:16:00.573Z,77.13
2022-12-19T15:18:39.213Z,80.17
2022-12-19T15:21:09.633Z,89.80
2022-12-19T15:23:37.817Z,98.47
2022-12-19T15:26:08.672Z,104.77
2022-12-19T15:28:43.195Z,101.83
2022-12-19T15:31:24.551Z,107.13
2022-12-19T15:34:33.515Z,101.23
2022-12-19T15:36:40.659Z,98.43
2022-12-19T15:39:08.709Z,101.37
2022-12-19T15:41:37.133Z,95.73
2022-12-19T15:44:10.000Z,103.53
2022-12-19T15:46:44.744Z,96.63
2022-12-19T15:49:18.052Z,98.47
2022-12-19T15:51:46.371Z,104.63
2022-12-19T15:54:47.153Z,107.83
2022-12-19T15:57:02.956Z,105.47
2022-12-19T15:59:38.012Z,105.50
2022-12-19T16:02:17.547Z,104.63
2022-12-19T16:04:47.703Z,108.07
2022-12-19T16:07:18.714Z,104.87
2022-12-19T16:09:47.450Z,103.83
2022-12-19T16:12:17.053Z,111.57
2022-12-19T16:14:45.910Z,114.43
2022-12-19T16:17:20.440Z,105.03
2022-12-19T16:19:48.574Z,109.13
2022-12-19T16:22:19.540Z,109.10
2022-12-19T16:24:47.722Z,104.37
2022-12-19T16:27:22.951Z,105.07
2022-12-19T16:29:51.318Z,113.77
2022-12-19T16:32:23.106Z,104.53
2022-12-19T16:34:51.721Z,107.80
2022-12-19T16:37:19.852Z,111.37
2022-12-19T16:39:47.933Z,106.30
2022-12-19T16:42:17.374Z,109.77
2022-12-19T16:44:48.057Z,107.87
2022-12-19T16:47:18.347Z,108.00
2022-12-19T16:49:47.810Z,111.43
2022-12-19T16:52:16.095Z,115.00
2022-12-19T16:54:44.197Z,108.67
2022-12-19T16:57:20.344Z,109.27
2022-12-19T16:59:49.729Z,108.97
2022-12-19T17:02:41.742Z,111.53
2022-12-19T17:05:22.075Z,112.37
2022-12-19T17:07:50.841Z,112.27
2022-12-19T17:10:24.361Z,110.07
2022-12-19T17:12:55.587Z,109.07
2022-12-19T17:15:28.245Z,112.33
2022-12-19T17:17:59.335Z,119.30
2022-12-19T17:20:33.368Z,115.27
2022-12-19T17:23:01.422Z,112.53
2022-12-19T17:25:29.540Z,118.83
2022-12-19T17:27:57.902Z,123.93
2022-12-19T17:30:26.059Z,117.90
2022-12-19T17:32:56.777Z,114.47
2022-12-19T17:35:28.953Z,112.90
2022-12-19T17:37:59.041Z,112.33
2022-12-19T17:40:29.525Z,121.23
2022-12-19T17:42:58.747Z,129.73
2022-12-19T17:45:29.277Z,124.43
2022-12-19T17:48:02.881Z,120.87
2022-12-19T17:50:35.171Z,124.60
2022-12-19T17:53:05.109Z,120.47
2022-12-19T17:55:33.778Z,116.30
2022-12-19T17:58:01.805Z,112.87
2022-12-19T18:00:33.161Z,111.70
2022-12-19T18:03:05.999Z,112.90
2022-12-19T18:05:36.945Z,110.97
2022-12-19T18:08:20.117Z,109.23
2022-12-19T18:10:48.270Z,111.30
2022-12-19T18:13:16.411Z,111.10
2022-12-19T18:15:44.699Z,107.60
2022-12-19T18:18:15.184Z,116.40
2022-12-19T18:20:44.507Z,109.63
2022-12-19T18:23:19.465Z,113.27
2022-12-19T18:25:47.562Z,112.63
2022-12-19T18:28:16.579Z,111.23
2022-12-19T18:30:45.676Z,112.73
2022-12-19T18:33:17.709Z,118.87
2022-12-19T18:35:48.625Z,113.67
2022-12-19T18:38:20.317Z,117.83
2022-12-19T18:40:49.327Z,115.67
2022-12-19T18:43:18.183Z,113.80
2022-12-19T18:45:48.502Z,111.47
2022-12-19T18:48:21.989Z,106.07
2022-12-19T18:50:50.084Z,106.10
2022-12-19T18:53:26.499Z,107.80
2022-12-19T18:56:02.666Z,109.67
2022-12-19T18:58:30.864Z,120.20
2022-12-19T19:01:02.982Z,116.80
2022-12-19T19:03:33.911Z,113.60
2022-12-19T19:06:02.102Z,117.20
2022-12-19T19:08:35.077Z,111.67
2022-12-19T19:11:20.372Z,124.87
2022-12-19T19:13:48.449Z,111.20
2022-12-19T19:16:19.271Z,108.73
2022-12-19T19:18:50.064Z,114.33
2022-12-19T19:21:19.150Z,113.80
2022-12-19T19:23:51.623Z,108.50
2022-12-19T19:26:19.704Z,113.73
2022-12-19T19:28:52.225Z,103.23
2022-12-19T19:31:23.448Z,112.20
2022-12-19T19:33:55.995Z,104.20
2022-12-19T19:36:26.912Z,113.53
2022-12-19T19:38:58.593Z,112.87
2022-12-19T19:41:29.832Z,114.13
2022-12-19T19:43:58.952Z,110.63
2022-12-19T19:46:27.345Z,108.83
2022-12-19T19:48:55.925Z,105.50
2022-12-19T19:51:24.011Z,108.33
2022-12-19T19:53:52.221Z,114.90
2022-12-19T19:56:21.602Z,108.93
2022-12-19T19:58:49.812Z,113.77
2022-12-19T20:01:18.042Z,120.93
2022-12-19T20:03:46.462Z,147.00
2022-12-19T20:06:17.910Z,133.17
2022-12-19T20:08:47.516Z,132.63
2022-12-19T20:11:15.624Z,140.30
2022-12-19T20:13:45.252Z,121.90
2022-12-19T20:16:16.599Z,119.20
2022-12-19T20:18:49.812Z,129.63
2022-12-19T20:21:18.720Z,130.00
2022-12-19T20:23:47.074Z,121.87
2022-12-19T20:26:16.379Z,115.37
2022-12-19T20:28:49.477Z,116.70
2022-12-19T20:31:19.175Z,117.73
2022-12-19T20:33:48.558Z,125.23
2022-12-19T20:36:17.014Z,126.67
2022-12-19T20:38:45.240Z,123.70
2022-12-19T20:41:13.422Z,118.73
2022-12-19T20:43:41.825Z,114.73
2022-12-19T20:46:13.955Z,119.17
2022-12-19T20:48:42.997Z,125.80
2022-12-19T20:51:11.162Z,123.20
2022-12-19T20:53:41.644Z,127.87
2022-12-19T20:56:14.017Z,131.37
2022-12-19T20:58:42.068Z,138.97
2022-12-19T21:01:14.003Z,140.93
2022-12-19T21:03:42.883Z,140.07
2022-12-19T21:06:13.562Z,151.67
2022-12-19T21:08:43.427Z,146.27
2022-12-19T21:11:12.489Z,140.10
2022-12-19T21:13:41.995Z,135.90
2022-12-19T21:16:14.640Z,139.90
2022-12-19T21:18:44.944Z,142.03
2022-12-19T21:21:15.648Z,149.50
2022-12-19T21:23:44.872Z,152.10
2022-12-19T21:26:13.347Z,144.40
2022-12-19T21:28:41.793Z,153.97
2022-12-19T21:31:16.331Z,144.20
2022-12-19T21:33:45.318Z,157.37
2022-12-19T21:36:16.715Z,131.87
2022-12-19T21:38:44.700Z,149.40
2022-12-19T21:41:18.717Z,133.60
2022-12-19T21:43:48.914Z,122.33
2022-12-19T21:46:19.180Z,123.60
2022-12-19T21:48:48.940Z,129.23
2022-12-19T21:51:18.608Z,128.60
2022-12-19T21:53:46.991Z,151.90
2022-12-19T21:56:23.783Z,139.70
2022-12-19T21:58:52.876Z,111.63
2022-12-19T22:01:23.215Z,140.00
2022-12-19T22:03:52.328Z,144.23
2022-12-19T22:06:27.958Z,141.43
2022-12-19T22:08:57.097Z,142.23
2022-12-19T22:11:25.873Z,148.60
2022-12-19T22:13:54.475Z,141.13
2022-12-19T22:16:24.005Z,156.20
2022-12-19T22:18:53.158Z,155.83
2022-12-19T22:21:21.690Z,156.03
2022-12-19T22:23:49.832Z,157.60
2022-12-19T22:26:20.643Z,150.67
2022-12-19T22:28:50.736Z,162.17
2022-12-19T22:31:21.400Z,161.00
2022-12-19T22:33:52.420Z,142.10
2022-12-19T22:36:27.617Z,146.73
2022-12-19T22:38:57.859Z,133.80
2022-12-19T22:41:26.491Z,137.13
2022-12-19T22:43:55.308Z,141.20
2022-12-19T22:46:26.324Z,140.87
2022-12-19T22:48:57.429Z,146.50
2022-12-19T22:51:26.505Z,139.03
2022-12-19T22:53:54.675Z,150.30
2022-12-19T22:56:24.538Z,147.00
2022-12-19T22:58:54.485Z,144.93
2022-12-19T23:01:24.879Z,135.90
2022-12-19T23:03:57.189Z,102.77
2022-12-19T23:06:27.545Z,135.97
2022-12-19T23:08:55.781Z,135.83
2022-12-19T23:11:27.182Z,94.83
2022-12-19T23:13:55.584Z,90.60
2022-12-19T23:16:23.673Z,89.30
2022-12-19T23:18:51.833Z,95.97
2022-12-19T23:21:24.031Z,92.73
2022-12-19T23:23:54.771Z,81.67
2022-12-19T23:26:25.116Z,85.73
2022-12-19T23:28:55.158Z,79.90
2022-12-19T23:31:23.663Z,89.40
2022-12-19T23:33:51.987Z,94.13
2022-12-19T23:36:45.312Z,95.00
2022-12-19T23:39:10.568Z,81.97
2022-12-19T23:41:39.102Z,89.20
2022-12-19T23:44:07.436Z,80.57
2022-12-19T23:46:35.455Z,75.00
2022-12-19T23:49:03.563Z,81.93
2022-12-19T23:51:33.365Z,84.60
2022-12-19T23:54:01.408Z,85.47
2022-12-19T23:56:31.470Z,90.37
2022-12-19T23:59:00.062Z,91.20
